sensor_id;sensor_type;location;lat;lon;timestamp;temperature;humidity
52709;DHT22;38606;52.986;6.980;2023-04-24T00:00:02;11.40;99.90
52709;DHT22;38606;52.986;6.980;2023-04-24T00:02:31;11.30;99.90
52709;DHT22;38606;52.986;6.980;2023-04-24T00:04:58;11.30;99.90
52709;DHT22;38606;52.986;6.980;2023-04-24T00:07:28;11.10;99.90
52709;DHT22;38606;52.986;6.980;2023-04-24T00:09:54;11.30;99.90
52709;DHT22;38606;52.986;6.980;2023-04-24T00:12:20;11.30;99.90
52709;DHT22;38606;52.986;6.980;2023-04-24T00:14:46;11.40;99.90
52709;DHT22;38606;52.986;6.980;2023-04-24T00:17:12;11.20;99.90
52709;DHT22;38606;52.986;6.980;2023-04-24T00:19:38;11.30;99.90
52709;DHT22;38606;52.986;6.980;2023-04-24T00:22:03;11.00;99.90
52709;DHT22;38606;52.986;6.980;2023-04-24T00:24:29;11.00;99.90
52709;DHT22;38606;52.986;6.980;2023-04-24T00:26:55;11.30;99.90
52709;DHT22;38606;52.986;6.980;2023-04-24T00:29:21;11.00;99.90
52709;DHT22;38606;52.986;6.980;2023-04-24T00:31:47;11.00;99.90
52709;DHT22;38606;52.986;6.980;2023-04-24T00:34:12;11.20;99.90
52709;DHT22;38606;52.986;6.980;2023-04-24T00:36:39;10.80;99.90
52709;DHT22;38606;52.986;6.980;2023-04-24T00:39:05;10.80;99.90
52709;DHT22;38606;52.986;6.980;2023-04-24T00:41:30;11.10;99.90
52709;DHT22;38606;52.986;6.980;2023-04-24T00:43:56;10.90;99.90
52709;DHT22;38606;52.986;6.980;2023-04-24T00:46:22;11.00;99.90
52709;DHT22;38606;52.986;6.980;2023-04-24T00:48:48;10.80;99.90
52709;DHT22;38606;52.986;6.980;2023-04-24T00:51:14;10.90;99.90
52709;DHT22;38606;52.986;6.980;2023-04-24T00:53:40;10.90;99.90
52709;DHT22;38606;52.986;6.980;2023-04-24T00:56:05;10.90;99.90
52709;DHT22;38606;52.986;6.980;2023-04-24T00:58:32;10.70;99.90
52709;DHT22;38606;52.986;6.980;2023-04-24T01:00:58;10.80;99.90
52709;DHT22;38606;52.986;6.980;2023-04-24T01:03:30;10.80;99.90
52709;DHT22;38606;52.986;6.980;2023-04-24T01:05:57;10.70;99.90
52709;DHT22;38606;52.986;6.980;2023-04-24T01:08:24;10.70;99.90
52709;DHT22;38606;52.986;6.980;2023-04-24T01:10:52;10.80;99.90
52709;DHT22;38606;52.986;6.980;2023-04-24T01:13:19;10.80;99.90
52709;DHT22;38606;52.986;6.980;2023-04-24T01:15:45;10.60;99.90
52709;DHT22;38606;52.986;6.980;2023-04-24T01:18:12;10.70;99.90
52709;DHT22;38606;52.986;6.980;2023-04-24T01:20:40;10.70;99.90
52709;DHT22;38606;52.986;6.980;2023-04-24T01:23:07;10.80;99.90
52709;DHT22;38606;52.986;6.980;2023-04-24T01:25:33;10.70;99.90
52709;DHT22;38606;52.986;6.980;2023-04-24T01:27:59;10.60;99.90
52709;DHT22;38606;52.986;6.980;2023-04-24T01:30:26;10.60;99.90
52709;DHT22;38606;52.986;6.980;2023-04-24T01:32:52;10.40;99.90
52709;DHT22;38606;52.986;6.980;2023-04-24T01:35:19;10.50;99.90
52709;DHT22;38606;52.986;6.980;2023-04-24T01:37:45;10.60;99.90
52709;DHT22;38606;52.986;6.980;2023-04-24T01:40:11;10.40;99.90
52709;DHT22;38606;52.986;6.980;2023-04-24T01:42:37;10.70;99.90
52709;DHT22;38606;52.986;6.980;2023-04-24T01:45:04;10.40;99.90
52709;DHT22;38606;52.986;6.980;2023-04-24T01:47:31;10.60;99.90
52709;DHT22;38606;52.986;6.980;2023-04-24T01:49:57;10.50;99.90
52709;DHT22;38606;52.986;6.980;2023-04-24T01:52:24;10.50;99.90
52709;DHT22;38606;52.986;6.980;2023-04-24T01:54:50;10.50;99.90
52709;DHT22;38606;52.986;6.980;2023-04-24T01:57:16;10.30;99.90
52709;DHT22;38606;52.986;6.980;2023-04-24T01:59:42;10.30;99.90
52709;DHT22;38606;52.986;6.980;2023-04-24T02:02:08;10.30;99.90
52709;DHT22;38606;52.986;6.980;2023-04-24T02:04:33;10.10;99.90
52709;DHT22;38606;52.986;6.980;2023-04-24T02:06:59;10.50;99.90
52709;DHT22;38606;52.986;6.980;2023-04-24T02:09:25;10.20;99.90
52709;DHT22;38606;52.986;6.980;2023-04-24T02:11:51;10.20;99.90
52709;DHT22;38606;52.986;6.980;2023-04-24T02:14:16;10.10;99.90
52709;DHT22;38606;52.986;6.980;2023-04-24T02:16:42;10.20;99.90
52709;DHT22;38606;52.986;6.980;2023-04-24T02:19:09;10.20;99.90
52709;DHT22;38606;52.986;6.980;2023-04-24T02:21:35;10.10;99.90
52709;DHT22;38606;52.986;6.980;2023-04-24T02:24:01;10.00;99.90
52709;DHT22;38606;52.986;6.980;2023-04-24T02:26:27;10.00;99.90
52709;DHT22;38606;52.986;6.980;2023-04-24T02:28:52;10.10;99.90
52709;DHT22;38606;52.986;6.980;2023-04-24T02:31:18;10.20;99.90
52709;DHT22;38606;52.986;6.980;2023-04-24T02:33:44;10.10;99.90
52709;DHT22;38606;52.986;6.980;2023-04-24T02:36:10;10.00;99.90
52709;DHT22;38606;52.986;6.980;2023-04-24T02:38:35;10.00;99.90
52709;DHT22;38606;52.986;6.980;2023-04-24T02:41:01;10.20;99.90
52709;DHT22;38606;52.986;6.980;2023-04-24T02:43:29;10.20;99.90
52709;DHT22;38606;52.986;6.980;2023-04-24T02:45:55;10.20;99.90
52709;DHT22;38606;52.986;6.980;2023-04-24T02:48:20;10.10;99.90
52709;DHT22;38606;52.986;6.980;2023-04-24T02:50:46;10.30;99.90
52709;DHT22;38606;52.986;6.980;2023-04-24T02:53:12;10.10;99.90
52709;DHT22;38606;52.986;6.980;2023-04-24T02:55:38;10.20;99.90
52709;DHT22;38606;52.986;6.980;2023-04-24T02:58:04;10.20;99.90
52709;DHT22;38606;52.986;6.980;2023-04-24T03:00:30;10.00;99.90
52709;DHT22;38606;52.986;6.980;2023-04-24T03:02:55;10.20;99.90
52709;DHT22;38606;52.986;6.980;2023-04-24T03:05:21;10.10;99.90
52709;DHT22;38606;52.986;6.980;2023-04-24T03:07:47;10.20;99.90
52709;DHT22;38606;52.986;6.980;2023-04-24T03:10:13;10.30;99.90
52709;DHT22;38606;52.986;6.980;2023-04-24T03:12:38;10.10;99.90
52709;DHT22;38606;52.986;6.980;2023-04-24T03:15:05;10.10;99.90
52709;DHT22;38606;52.986;6.980;2023-04-24T03:17:30;10.20;99.90
52709;DHT22;38606;52.986;6.980;2023-04-24T03:19:56;10.10;99.90
52709;DHT22;38606;52.986;6.980;2023-04-24T03:22:22;10.00;99.90
52709;DHT22;38606;52.986;6.980;2023-04-24T03:24:48;10.10;99.90
52709;DHT22;38606;52.986;6.980;2023-04-24T03:27:13;10.20;99.90
52709;DHT22;38606;52.986;6.980;2023-04-24T03:29:39;10.30;99.90
52709;DHT22;38606;52.986;6.980;2023-04-24T03:32:05;10.00;99.90
52709;DHT22;38606;52.986;6.980;2023-04-24T03:34:30;10.10;99.90
52709;DHT22;38606;52.986;6.980;2023-04-24T03:36:56;10.00;99.90
52709;DHT22;38606;52.986;6.980;2023-04-24T03:39:22;10.20;99.90
52709;DHT22;38606;52.986;6.980;2023-04-24T03:41:48;10.20;99.90
52709;DHT22;38606;52.986;6.980;2023-04-24T03:44:13;10.20;99.90
52709;DHT22;38606;52.986;6.980;2023-04-24T03:46:39;10.20;99.90
52709;DHT22;38606;52.986;6.980;2023-04-24T03:49:05;10.10;99.90
52709;DHT22;38606;52.986;6.980;2023-04-24T03:51:30;10.20;99.90
52709;DHT22;38606;52.986;6.980;2023-04-24T03:53:57;10.10;99.90
52709;DHT22;38606;52.986;6.980;2023-04-24T03:56:22;10.30;99.90
52709;DHT22;38606;52.986;6.980;2023-04-24T03:58:48;10.10;99.90
52709;DHT22;38606;52.986;6.980;2023-04-24T04:01:14;10.20;99.90
52709;DHT22;38606;52.986;6.980;2023-04-24T04:03:41;10.40;99.90
52709;DHT22;38606;52.986;6.980;2023-04-24T04:06:07;10.20;99.90
52709;DHT22;38606;52.986;6.980;2023-04-24T04:08:33;10.10;99.90
52709;DHT22;38606;52.986;6.980;2023-04-24T04:10:58;10.20;99.90
52709;DHT22;38606;52.986;6.980;2023-04-24T04:13:24;10.30;99.90
52709;DHT22;38606;52.986;6.980;2023-04-24T04:15:50;9.70;99.90
52709;DHT22;38606;52.986;6.980;2023-04-24T04:18:15;10.10;99.90
52709;DHT22;38606;52.986;6.980;2023-04-24T04:20:41;9.70;99.90
52709;DHT22;38606;52.986;6.980;2023-04-24T04:23:07;10.00;99.90
52709;DHT22;38606;52.986;6.980;2023-04-24T04:25:33;10.00;99.90
52709;DHT22;38606;52.986;6.980;2023-04-24T04:27:58;10.10;99.90
52709;DHT22;38606;52.986;6.980;2023-04-24T04:30:25;10.20;99.90
52709;DHT22;38606;52.986;6.980;2023-04-24T04:32:51;10.20;99.90
52709;DHT22;38606;52.986;6.980;2023-04-24T04:35:17;9.90;99.90
52709;DHT22;38606;52.986;6.980;2023-04-24T04:37:43;10.20;99.90
52709;DHT22;38606;52.986;6.980;2023-04-24T04:40:09;10.00;99.90
52709;DHT22;38606;52.986;6.980;2023-04-24T04:42:37;10.10;99.90
52709;DHT22;38606;52.986;6.980;2023-04-24T04:45:07;10.10;99.90
52709;DHT22;38606;52.986;6.980;2023-04-24T04:47:34;9.90;99.90
52709;DHT22;38606;52.986;6.980;2023-04-24T04:50:00;10.20;99.90
52709;DHT22;38606;52.986;6.980;2023-04-24T04:52:26;10.30;99.90
52709;DHT22;38606;52.986;6.980;2023-04-24T04:54:52;9.80;99.90
52709;DHT22;38606;52.986;6.980;2023-04-24T04:57:18;10.00;99.90
52709;DHT22;38606;52.986;6.980;2023-04-24T04:59:44;10.20;99.90
52709;DHT22;38606;52.986;6.980;2023-04-24T05:02:10;10.10;99.90
52709;DHT22;38606;52.986;6.980;2023-04-24T05:04:36;10.10;99.90
52709;DHT22;38606;52.986;6.980;2023-04-24T05:07:02;9.90;99.90
52709;DHT22;38606;52.986;6.980;2023-04-24T05:09:28;10.00;99.90
52709;DHT22;38606;52.986;6.980;2023-04-24T05:11:55;10.00;99.90
52709;DHT22;38606;52.986;6.980;2023-04-24T05:14:21;10.00;99.90
52709;DHT22;38606;52.986;6.980;2023-04-24T05:16:47;10.00;99.90
52709;DHT22;38606;52.986;6.980;2023-04-24T05:19:13;10.20;99.90
52709;DHT22;38606;52.986;6.980;2023-04-24T05:21:40;10.20;99.90
52709;DHT22;38606;52.986;6.980;2023-04-24T05:24:06;10.10;99.90
52709;DHT22;38606;52.986;6.980;2023-04-24T05:26:32;10.10;99.90
52709;DHT22;38606;52.986;6.980;2023-04-24T05:28:58;10.10;99.90
52709;DHT22;38606;52.986;6.980;2023-04-24T05:31:24;10.20;99.90
52709;DHT22;38606;52.986;6.980;2023-04-24T05:33:50;10.10;99.90
52709;DHT22;38606;52.986;6.980;2023-04-24T05:36:16;10.30;99.90
52709;DHT22;38606;52.986;6.980;2023-04-24T05:38:42;10.10;99.90
52709;DHT22;38606;52.986;6.980;2023-04-24T05:41:08;10.10;99.90
52709;DHT22;38606;52.986;6.980;2023-04-24T05:43:33;10.20;99.90
52709;DHT22;38606;52.986;6.980;2023-04-24T05:45:59;10.10;99.90
52709;DHT22;38606;52.986;6.980;2023-04-24T05:48:25;10.10;99.90
52709;DHT22;38606;52.986;6.980;2023-04-24T05:50:51;10.10;99.90
52709;DHT22;38606;52.986;6.980;2023-04-24T05:53:18;10.10;99.90
52709;DHT22;38606;52.986;6.980;2023-04-24T05:55:44;10.20;99.90
52709;DHT22;38606;52.986;6.980;2023-04-24T05:58:11;9.70;99.90
52709;DHT22;38606;52.986;6.980;2023-04-24T06:00:37;10.00;99.90
52709;DHT22;38606;52.986;6.980;2023-04-24T06:03:06;10.30;99.90
52709;DHT22;38606;52.986;6.980;2023-04-24T06:05:33;10.10;99.90
52709;DHT22;38606;52.986;6.980;2023-04-24T06:07:58;10.10;99.90
52709;DHT22;38606;52.986;6.980;2023-04-24T06:10:24;10.20;99.90
52709;DHT22;38606;52.986;6.980;2023-04-24T06:12:50;10.10;99.90
52709;DHT22;38606;52.986;6.980;2023-04-24T06:15:16;10.10;99.90
52709;DHT22;38606;52.986;6.980;2023-04-24T06:17:41;10.10;99.90
52709;DHT22;38606;52.986;6.980;2023-04-24T06:20:07;10.10;99.90
52709;DHT22;38606;52.986;6.980;2023-04-24T06:22:33;10.30;99.90
52709;DHT22;38606;52.986;6.980;2023-04-24T06:25:00;10.20;99.90
52709;DHT22;38606;52.986;6.980;2023-04-24T06:27:26;10.10;99.90
52709;DHT22;38606;52.986;6.980;2023-04-24T06:29:52;10.30;99.90
52709;DHT22;38606;52.986;6.980;2023-04-24T06:32:24;10.20;99.90
52709;DHT22;38606;52.986;6.980;2023-04-24T06:34:51;10.20;99.90
52709;DHT22;38606;52.986;6.980;2023-04-24T06:37:19;10.30;99.90
52709;DHT22;38606;52.986;6.980;2023-04-24T06:39:46;10.10;99.90
52709;DHT22;38606;52.986;6.980;2023-04-24T06:42:14;10.20;99.90
52709;DHT22;38606;52.986;6.980;2023-04-24T06:44:40;10.40;99.90
52709;DHT22;38606;52.986;6.980;2023-04-24T06:47:10;10.20;99.90
52709;DHT22;38606;52.986;6.980;2023-04-24T06:49:37;10.30;99.90
52709;DHT22;38606;52.986;6.980;2023-04-24T06:52:03;10.30;99.90
52709;DHT22;38606;52.986;6.980;2023-04-24T06:54:29;10.30;99.90
52709;DHT22;38606;52.986;6.980;2023-04-24T06:56:55;10.50;99.90
52709;DHT22;38606;52.986;6.980;2023-04-24T06:59:23;10.30;99.90
52709;DHT22;38606;52.986;6.980;2023-04-24T07:01:49;10.40;99.90
52709;DHT22;38606;52.986;6.980;2023-04-24T07:04:17;10.30;99.90
52709;DHT22;38606;52.986;6.980;2023-04-24T07:06:43;10.60;99.90
52709;DHT22;38606;52.986;6.980;2023-04-24T07:09:10;10.50;99.90
52709;DHT22;38606;52.986;6.980;2023-04-24T07:11:36;10.60;99.90
52709;DHT22;38606;52.986;6.980;2023-04-24T07:14:03;10.50;99.90
52709;DHT22;38606;52.986;6.980;2023-04-24T07:16:29;10.60;99.90
52709;DHT22;38606;52.986;6.980;2023-04-24T07:18:55;10.70;99.90
52709;DHT22;38606;52.986;6.980;2023-04-24T07:21:21;10.70;99.90
52709;DHT22;38606;52.986;6.980;2023-04-24T07:23:47;10.70;99.90
52709;DHT22;38606;52.986;6.980;2023-04-24T07:26:12;10.50;99.90
52709;DHT22;38606;52.986;6.980;2023-04-24T07:28:40;10.80;99.90
52709;DHT22;38606;52.986;6.980;2023-04-24T07:31:07;10.70;99.90
52709;DHT22;38606;52.986;6.980;2023-04-24T07:33:33;10.60;99.90
52709;DHT22;38606;52.986;6.980;2023-04-24T07:35:59;10.70;99.90
52709;DHT22;38606;52.986;6.980;2023-04-24T07:38:25;10.90;99.90
52709;DHT22;38606;52.986;6.980;2023-04-24T07:40:51;11.00;99.90
52709;DHT22;38606;52.986;6.980;2023-04-24T07:43:19;10.90;99.90
52709;DHT22;38606;52.986;6.980;2023-04-24T07:45:45;11.10;99.90
52709;DHT22;38606;52.986;6.980;2023-04-24T07:48:11;11.00;99.90
52709;DHT22;38606;52.986;6.980;2023-04-24T07:50:39;11.00;99.90
52709;DHT22;38606;52.986;6.980;2023-04-24T07:53:04;11.00;99.90
52709;DHT22;38606;52.986;6.980;2023-04-24T07:55:30;11.00;99.90
52709;DHT22;38606;52.986;6.980;2023-04-24T07:57:56;10.90;99.90
52709;DHT22;38606;52.986;6.980;2023-04-24T08:00:22;11.00;99.90
52709;DHT22;38606;52.986;6.980;2023-04-24T08:02:48;11.30;99.90
52709;DHT22;38606;52.986;6.980;2023-04-24T08:05:13;11.10;99.90
52709;DHT22;38606;52.986;6.980;2023-04-24T08:07:39;11.20;99.90
52709;DHT22;38606;52.986;6.980;2023-04-24T08:10:05;11.20;99.90
52709;DHT22;38606;52.986;6.980;2023-04-24T08:12:31;11.10;99.90
52709;DHT22;38606;52.986;6.980;2023-04-24T08:14:57;11.00;99.90
52709;DHT22;38606;52.986;6.980;2023-04-24T08:17:24;11.20;99.90
52709;DHT22;38606;52.986;6.980;2023-04-24T08:19:49;11.00;99.90
52709;DHT22;38606;52.986;6.980;2023-04-24T08:22:16;11.00;99.90
52709;DHT22;38606;52.986;6.980;2023-04-24T08:24:42;11.00;99.90
52709;DHT22;38606;52.986;6.980;2023-04-24T08:27:09;10.80;99.90
52709;DHT22;38606;52.986;6.980;2023-04-24T08:29:36;11.00;99.90
52709;DHT22;38606;52.986;6.980;2023-04-24T08:32:02;10.60;99.90
52709;DHT22;38606;52.986;6.980;2023-04-24T08:34:28;10.80;99.90
52709;DHT22;38606;52.986;6.980;2023-04-24T08:36:54;10.70;99.90
52709;DHT22;38606;52.986;6.980;2023-04-24T08:39:20;10.60;99.90
52709;DHT22;38606;52.986;6.980;2023-04-24T08:41:48;10.80;99.90
52709;DHT22;38606;52.986;6.980;2023-04-24T08:44:14;10.70;99.90
52709;DHT22;38606;52.986;6.980;2023-04-24T08:46:43;10.50;99.90
52709;DHT22;38606;52.986;6.980;2023-04-24T08:49:12;10.50;99.90
52709;DHT22;38606;52.986;6.980;2023-04-24T08:51:39;10.70;99.90
52709;DHT22;38606;52.986;6.980;2023-04-24T08:54:05;10.30;99.90
52709;DHT22;38606;52.986;6.980;2023-04-24T08:56:33;10.50;99.90
52709;DHT22;38606;52.986;6.980;2023-04-24T08:59:00;10.60;99.90
52709;DHT22;38606;52.986;6.980;2023-04-24T09:01:26;10.60;99.90
52709;DHT22;38606;52.986;6.980;2023-04-24T09:03:53;10.60;99.90
52709;DHT22;38606;52.986;6.980;2023-04-24T09:06:21;10.50;99.90
52709;DHT22;38606;52.986;6.980;2023-04-24T09:08:48;10.60;99.90
52709;DHT22;38606;52.986;6.980;2023-04-24T09:11:15;10.40;99.90
52709;DHT22;38606;52.986;6.980;2023-04-24T09:13:41;10.50;99.90
52709;DHT22;38606;52.986;6.980;2023-04-24T09:16:08;10.80;99.90
52709;DHT22;38606;52.986;6.980;2023-04-24T09:18:33;10.60;99.90
52709;DHT22;38606;52.986;6.980;2023-04-24T09:21:02;10.60;99.90
52709;DHT22;38606;52.986;6.980;2023-04-24T09:23:30;10.40;99.90
52709;DHT22;38606;52.986;6.980;2023-04-24T09:25:57;10.60;99.90
52709;DHT22;38606;52.986;6.980;2023-04-24T09:28:34;10.70;99.90
52709;DHT22;38606;52.986;6.980;2023-04-24T09:31:14;10.40;99.90
52709;DHT22;38606;52.986;6.980;2023-04-24T09:34:00;10.40;99.90
52709;DHT22;38606;52.986;6.980;2023-04-24T09:36:31;10.30;99.90
52709;DHT22;38606;52.986;6.980;2023-04-24T09:39:02;10.30;99.90
52709;DHT22;38606;52.986;6.980;2023-04-24T09:41:28;10.20;99.90
52709;DHT22;38606;52.986;6.980;2023-04-24T09:43:57;10.40;99.90
52709;DHT22;38606;52.986;6.980;2023-04-24T09:46:30;10.10;99.90
52709;DHT22;38606;52.986;6.980;2023-04-24T09:49:14;10.00;99.90
52709;DHT22;38606;52.986;6.980;2023-04-24T09:51:43;10.20;99.90
52709;DHT22;38606;52.986;6.980;2023-04-24T09:54:17;10.00;99.90
52709;DHT22;38606;52.986;6.980;2023-04-24T09:56:45;10.00;99.90
52709;DHT22;38606;52.986;6.980;2023-04-24T09:59:15;10.10;99.90
52709;DHT22;38606;52.986;6.980;2023-04-24T10:01:41;10.00;99.90
52709;DHT22;38606;52.986;6.980;2023-04-24T10:04:20;10.00;99.90
52709;DHT22;38606;52.986;6.980;2023-04-24T10:06:47;9.80;99.90
52709;DHT22;38606;52.986;6.980;2023-04-24T10:09:15;9.80;99.90
52709;DHT22;38606;52.986;6.980;2023-04-24T10:11:46;9.70;99.90
52709;DHT22;38606;52.986;6.980;2023-04-24T10:14:14;9.80;99.90
52709;DHT22;38606;52.986;6.980;2023-04-24T10:16:41;9.70;99.90
52709;DHT22;38606;52.986;6.980;2023-04-24T10:19:07;9.60;99.90
52709;DHT22;38606;52.986;6.980;2023-04-24T10:21:34;9.90;99.90
52709;DHT22;38606;52.986;6.980;2023-04-24T10:24:01;9.80;99.90
52709;DHT22;38606;52.986;6.980;2023-04-24T10:26:29;10.00;99.90
52709;DHT22;38606;52.986;6.980;2023-04-24T10:28:57;9.80;99.90
52709;DHT22;38606;52.986;6.980;2023-04-24T10:31:23;9.90;99.90
52709;DHT22;38606;52.986;6.980;2023-04-24T10:33:51;9.90;99.90
52709;DHT22;38606;52.986;6.980;2023-04-24T10:36:18;9.90;99.90
52709;DHT22;38606;52.986;6.980;2023-04-24T10:38:45;9.90;99.90
52709;DHT22;38606;52.986;6.980;2023-04-24T10:41:12;9.70;99.90
52709;DHT22;38606;52.986;6.980;2023-04-24T10:43:42;9.90;99.90
52709;DHT22;38606;52.986;6.980;2023-04-24T10:46:09;9.80;99.90
52709;DHT22;38606;52.986;6.980;2023-04-24T10:48:42;10.10;99.90
52709;DHT22;38606;52.986;6.980;2023-04-24T10:51:12;10.00;99.90
52709;DHT22;38606;52.986;6.980;2023-04-24T10:53:39;10.00;99.90
52709;DHT22;38606;52.986;6.980;2023-04-24T10:56:07;10.30;99.90
52709;DHT22;38606;52.986;6.980;2023-04-24T10:58:53;10.20;99.90
52709;DHT22;38606;52.986;6.980;2023-04-24T11:01:30;10.00;99.90
52709;DHT22;38606;52.986;6.980;2023-04-24T11:04:01;10.10;99.90
52709;DHT22;38606;52.986;6.980;2023-04-24T11:06:37;10.30;99.90
52709;DHT22;38606;52.986;6.980;2023-04-24T11:11:30;10.30;99.90
52709;DHT22;38606;52.986;6.980;2023-04-24T11:16:27;10.40;99.90
52709;DHT22;38606;52.986;6.980;2023-04-24T11:19:04;10.40;99.90
52709;DHT22;38606;52.986;6.980;2023-04-24T11:24:24;10.40;99.90
52709;DHT22;38606;52.986;6.980;2023-04-24T11:26:53;10.30;99.90
52709;DHT22;38606;52.986;6.980;2023-04-24T11:29:20;10.50;99.90
52709;DHT22;38606;52.986;6.980;2023-04-24T11:31:47;10.30;99.90
52709;DHT22;38606;52.986;6.980;2023-04-24T11:34:15;10.30;99.90
52709;DHT22;38606;52.986;6.980;2023-04-24T11:36:46;10.50;99.90
52709;DHT22;38606;52.986;6.980;2023-04-24T11:39:12;10.70;99.90
52709;DHT22;38606;52.986;6.980;2023-04-24T11:41:38;10.40;99.90
52709;DHT22;38606;52.986;6.980;2023-04-24T11:44:06;10.60;99.90
52709;DHT22;38606;52.986;6.980;2023-04-24T11:46:32;10.70;99.90
52709;DHT22;38606;52.986;6.980;2023-04-24T11:48:59;10.70;99.90
52709;DHT22;38606;52.986;6.980;2023-04-24T11:51:26;10.80;99.90
52709;DHT22;38606;52.986;6.980;2023-04-24T11:53:56;10.70;99.90
52709;DHT22;38606;52.986;6.980;2023-04-24T11:56:25;10.80;99.90
52709;DHT22;38606;52.986;6.980;2023-04-24T11:58:54;10.80;99.90
52709;DHT22;38606;52.986;6.980;2023-04-24T12:01:22;10.80;99.90
52709;DHT22;38606;52.986;6.980;2023-04-24T12:03:49;10.70;99.90
52709;DHT22;38606;52.986;6.980;2023-04-24T12:06:16;11.00;99.90
52709;DHT22;38606;52.986;6.980;2023-04-24T12:08:46;10.80;99.90
52709;DHT22;38606;52.986;6.980;2023-04-24T12:11:15;10.70;99.90
52709;DHT22;38606;52.986;6.980;2023-04-24T12:13:41;10.80;99.90
52709;DHT22;38606;52.986;6.980;2023-04-24T12:16:07;10.80;99.90
52709;DHT22;38606;52.986;6.980;2023-04-24T12:18:32;10.80;99.90
52709;DHT22;38606;52.986;6.980;2023-04-24T12:21:22;10.90;99.90
52709;DHT22;38606;52.986;6.980;2023-04-24T12:23:48;11.30;99.90
52709;DHT22;38606;52.986;6.980;2023-04-24T12:26:18;10.90;99.90
52709;DHT22;38606;52.986;6.980;2023-04-24T12:28:48;10.90;99.90
52709;DHT22;38606;52.986;6.980;2023-04-24T12:31:17;10.80;99.90
52709;DHT22;38606;52.986;6.980;2023-04-24T12:33:46;10.70;99.90
52709;DHT22;38606;52.986;6.980;2023-04-24T12:36:11;10.70;99.90
52709;DHT22;38606;52.986;6.980;2023-04-24T12:38:38;10.50;99.90
52709;DHT22;38606;52.986;6.980;2023-04-24T12:41:07;10.60;99.90
52709;DHT22;38606;52.986;6.980;2023-04-24T12:43:34;10.50;99.90
52709;DHT22;38606;52.986;6.980;2023-04-24T12:46:00;10.30;99.90
52709;DHT22;38606;52.986;6.980;2023-04-24T12:48:29;10.20;99.90
52709;DHT22;38606;52.986;6.980;2023-04-24T12:50:56;10.20;99.90
52709;DHT22;38606;52.986;6.980;2023-04-24T12:53:22;10.30;99.90
52709;DHT22;38606;52.986;6.980;2023-04-24T12:55:48;10.10;99.90
52709;DHT22;38606;52.986;6.980;2023-04-24T12:58:19;10.20;99.90
52709;DHT22;38606;52.986;6.980;2023-04-24T13:00:46;10.10;99.90
52709;DHT22;38606;52.986;6.980;2023-04-24T13:03:12;9.00;99.90
52709;DHT22;38606;52.986;6.980;2023-04-24T13:08:57;10.50;99.90
52709;DHT22;38606;52.986;6.980;2023-04-24T13:11:24;10.60;99.90
52709;DHT22;38606;52.986;6.980;2023-04-24T13:13:50;10.60;99.90
52709;DHT22;38606;52.986;6.980;2023-04-24T13:16:15;10.50;99.90
52709;DHT22;38606;52.986;6.980;2023-04-24T13:18:41;10.60;99.90
52709;DHT22;38606;52.986;6.980;2023-04-24T13:21:07;10.60;99.90
52709;DHT22;38606;52.986;6.980;2023-04-24T13:23:33;11.60;99.90
52709;DHT22;38606;52.986;6.980;2023-04-24T13:26:00;10.60;99.90
52709;DHT22;38606;52.986;6.980;2023-04-24T13:28:26;10.80;99.90
52709;DHT22;38606;52.986;6.980;2023-04-24T13:30:53;10.50;99.90
52709;DHT22;38606;52.986;6.980;2023-04-24T13:33:18;10.70;99.90
52709;DHT22;38606;52.986;6.980;2023-04-24T13:35:44;10.50;99.90
52709;DHT22;38606;52.986;6.980;2023-04-24T13:38:10;10.60;99.90
52709;DHT22;38606;52.986;6.980;2023-04-24T13:40:36;10.50;99.90
52709;DHT22;38606;52.986;6.980;2023-04-24T13:43:03;10.50;99.90
52709;DHT22;38606;52.986;6.980;2023-04-24T13:45:28;10.60;99.90
52709;DHT22;38606;52.986;6.980;2023-04-24T13:47:55;10.50;99.90
52709;DHT22;38606;52.986;6.980;2023-04-24T13:50:22;10.50;99.90
52709;DHT22;38606;52.986;6.980;2023-04-24T13:52:48;10.40;99.90
52709;DHT22;38606;52.986;6.980;2023-04-24T13:55:14;10.50;99.90
52709;DHT22;38606;52.986;6.980;2023-04-24T13:57:39;10.10;99.90
52709;DHT22;38606;52.986;6.980;2023-04-24T14:00:07;10.60;99.90
52709;DHT22;38606;52.986;6.980;2023-04-24T14:02:34;10.50;99.90
52709;DHT22;38606;52.986;6.980;2023-04-24T14:05:00;10.40;99.90
52709;DHT22;38606;52.986;6.980;2023-04-24T14:07:26;10.50;99.90
52709;DHT22;38606;52.986;6.980;2023-04-24T14:09:53;10.30;99.90
52709;DHT22;38606;52.986;6.980;2023-04-24T14:12:19;10.10;99.90
52709;DHT22;38606;52.986;6.980;2023-04-24T14:14:46;10.20;99.90
52709;DHT22;38606;52.986;6.980;2023-04-24T14:17:12;10.30;99.90
52709;DHT22;38606;52.986;6.980;2023-04-24T14:19:41;10.40;99.90
52709;DHT22;38606;52.986;6.980;2023-04-24T14:22:07;10.40;99.90
52709;DHT22;38606;52.986;6.980;2023-04-24T14:24:33;10.60;99.90
52709;DHT22;38606;52.986;6.980;2023-04-24T14:26:58;10.80;99.90
52709;DHT22;38606;52.986;6.980;2023-04-24T14:29:24;10.70;99.90
52709;DHT22;38606;52.986;6.980;2023-04-24T14:31:51;10.70;99.90
52709;DHT22;38606;52.986;6.980;2023-04-24T14:34:17;10.80;99.90
52709;DHT22;38606;52.986;6.980;2023-04-24T14:36:43;10.50;99.90
52709;DHT22;38606;52.986;6.980;2023-04-24T14:39:09;10.80;99.90
52709;DHT22;38606;52.986;6.980;2023-04-24T14:41:36;10.50;99.90
52709;DHT22;38606;52.986;6.980;2023-04-24T14:44:03;10.60;99.90
52709;DHT22;38606;52.986;6.980;2023-04-24T14:46:29;10.30;99.90
52709;DHT22;38606;52.986;6.980;2023-04-24T14:48:58;10.30;99.90
52709;DHT22;38606;52.986;6.980;2023-04-24T14:51:24;10.40;99.90
52709;DHT22;38606;52.986;6.980;2023-04-24T14:53:50;10.40;99.90
52709;DHT22;38606;52.986;6.980;2023-04-24T14:56:17;10.30;99.90
52709;DHT22;38606;52.986;6.980;2023-04-24T14:58:43;10.10;99.90
52709;DHT22;38606;52.986;6.980;2023-04-24T15:01:08;10.40;99.90
52709;DHT22;38606;52.986;6.980;2023-04-24T15:03:34;10.00;99.90
52709;DHT22;38606;52.986;6.980;2023-04-24T15:06:00;10.20;99.90
52709;DHT22;38606;52.986;6.980;2023-04-24T15:08:26;10.10;99.90
52709;DHT22;38606;52.986;6.980;2023-04-24T15:10:52;10.20;99.90
52709;DHT22;38606;52.986;6.980;2023-04-24T15:13:18;10.00;99.90
52709;DHT22;38606;52.986;6.980;2023-04-24T15:15:46;10.00;99.90
52709;DHT22;38606;52.986;6.980;2023-04-24T15:18:12;9.90;99.90
52709;DHT22;38606;52.986;6.980;2023-04-24T15:20:38;9.80;99.90
52709;DHT22;38606;52.986;6.980;2023-04-24T15:23:10;9.60;99.90
52709;DHT22;38606;52.986;6.980;2023-04-24T15:25:37;9.80;99.90
52709;DHT22;38606;52.986;6.980;2023-04-24T15:28:03;9.80;99.90
52709;DHT22;38606;52.986;6.980;2023-04-24T15:30:30;11.60;99.90
52709;DHT22;38606;52.986;6.980;2023-04-24T15:32:56;9.70;99.90
52709;DHT22;38606;52.986;6.980;2023-04-24T15:35:22;9.60;99.90
52709;DHT22;38606;52.986;6.980;2023-04-24T15:37:48;9.80;99.90
52709;DHT22;38606;52.986;6.980;2023-04-24T15:40:14;9.70;99.90